Time;durP1;ratioP1;P1;durP2;ratioP2;P2;SDS_P1;SDS_P2;PMS_P1;PMS_P2;Temp;Humidity;BMP_temperature;BMP_pressure;BME280_temperature;BME280_humidity;BME280_pressure;Samples;Min_cycle;Max_cycle;Signal;HPM_P1;HPM_P2
2022/07/30 00:02:19;;;;;;;;;;;;;;;20.52;64.98;100838.75;10588065;28;19942;-68
2022/07/30 00:07:22;;;;;;;;;;;;;;;20.47;65.60;100832.81;10587874;28;19923;-67
2022/07/30 00:12:26;;;;;;;;;;;;;;;20.52;65.92;100844.00;10587407;28;19924;-65
2022/07/30 00:17:29;;;;;;;;;;;;;;;20.63;65.13;100828.59;10587247;28;19924;-67
2022/07/30 00:22:33;;;;;;;;;;;;;;;20.53;64.96;100829.91;10587328;28;19924;-66
2022/07/30 00:27:38;;;;;;;;;;;;;;;20.45;65.20;100831.13;10587225;28;19924;-69
2022/07/30 00:32:41;;;;;;;;;;;;;;;20.41;65.48;100817.25;10586572;28;19935;-66
2022/07/30 00:37:44;;;;;;;;;;;;;;;20.44;65.92;100810.97;10586530;28;19923;-66
2022/07/30 00:42:48;;;;;;;;;;;;;;;20.32;66.39;100812.38;10586400;28;19924;-69
2022/07/30 00:47:51;;;;;;;;;;;;;;;20.32;67.50;100801.81;10586530;28;19923;-67
2022/07/30 00:52:54;;;;;;;;;;;;;;;20.35;66.69;100798.19;10585813;28;20260;-70
2022/07/30 00:57:59;;;;;;;;;;;;;;;20.26;67.94;100796.81;10585462;28;19924;-71
2022/07/30 01:03:03;;;;;;;;;;;;;;;20.35;67.09;100788.50;10585791;28;19923;-68
2022/07/30 01:08:06;;;;;;;;;;;;;;;20.26;67.32;100791.53;10585805;28;20023;-69
2022/07/30 01:13:11;;;;;;;;;;;;;;;20.18;68.15;100784.88;10585523;28;20010;-69
2022/07/30 01:18:15;;;;;;;;;;;;;;;20.21;67.95;100779.47;10585354;28;19924;-67
2022/07/30 01:23:21;;;;;;;;;;;;;;;20.17;68.06;100773.47;10585226;28;19924;-68
2022/07/30 01:28:26;;;;;;;;;;;;;;;20.20;68.87;100757.53;10584923;28;19924;-69
2022/07/30 01:33:30;;;;;;;;;;;;;;;20.18;69.28;100751.47;10584819;28;19930;-70
2022/07/30 01:38:34;;;;;;;;;;;;;;;20.16;69.56;100763.84;10584666;28;20298;-67
2022/07/30 01:43:39;;;;;;;;;;;;;;;20.13;69.57;100765.72;10584801;28;20344;-70
2022/07/30 01:48:43;;;;;;;;;;;;;;;20.11;69.99;100757.88;10585475;28;19934;-69
2022/07/30 01:53:49;;;;;;;;;;;;;;;20.14;70.04;100739.31;10584601;28;19924;-68
2022/07/30 01:58:55;;;;;;;;;;;;;;;20.06;70.47;100732.66;10584691;28;20250;-69
2022/07/30 02:04:00;;;;;;;;;;;;;;;20.06;71.26;100738.78;10584581;28;20241;-68
2022/07/30 02:09:05;;;;;;;;;;;;;;;20.09;71.23;100737.78;10587602;28;20341;-67
2022/07/30 02:14:17;;;;;;;;;;;;;;;20.02;72.02;100744.25;10592637;28;19996;-68
2022/07/30 02:19:23;;;;;;;;;;;;;;;20.01;71.79;100732.00;10592105;28;19932;-65
2022/07/30 02:24:36;;;;;;;;;;;;;;;19.94;72.04;100733.16;10591723;28;19984;-68
2022/07/30 02:29:42;;;;;;;;;;;;;;;19.89;73.52;100730.75;10591835;28;20272;-68
2022/07/30 02:34:48;;;;;;;;;;;;;;;19.91;73.43;100718.38;10592026;28;19934;-70
2022/07/30 02:39:51;;;;;;;;;;;;;;;19.88;73.39;100704.47;10591547;28;19930;-67
2022/07/30 02:44:57;;;;;;;;;;;;;;;19.93;73.25;100703.31;10591304;28;19950;-66
2022/07/30 02:50:01;;;;;;;;;;;;;;;19.92;73.50;100687.56;10591053;28;20349;-67
2022/07/30 02:55:05;;;;;;;;;;;;;;;19.81;74.24;100688.03;10590635;28;19930;-72
2022/07/30 03:00:10;;;;;;;;;;;;;;;19.88;74.26;100678.94;10590575;28;20340;-72
2022/07/30 03:05:14;;;;;;;;;;;;;;;19.85;74.00;100673.81;10588615;28;19927;-69
2022/07/30 03:10:17;;;;;;;;;;;;;;;19.81;74.41;100663.50;10584766;28;19928;-69
2022/07/30 03:15:22;;;;;;;;;;;;;;;19.83;74.59;100659.84;10583710;28;19938;-69
2022/07/30 03:20:27;;;;;;;;;;;;;;;19.87;74.47;100661.44;10583365;28;20256;-69
2022/07/30 03:25:32;;;;;;;;;;;;;;;19.75;74.97;100674.28;10230891;28;9999601;-68
2022/07/30 03:30:37;;;;;;;;;;;;;;;19.86;74.57;100672.06;10583441;28;19927;-70
2022/07/30 03:35:41;;;;;;;;;;;;;;;19.80;74.73;100673.16;10582961;28;19928;-69
2022/07/30 03:40:45;;;;;;;;;;;;;;;19.78;75.05;100655.69;10583201;28;19923;-68
2022/07/30 03:45:50;;;;;;;;;;;;;;;19.72;76.32;100658.59;10583908;28;19928;-66
2022/07/30 03:50:53;;;;;;;;;;;;;;;19.82;75.78;100654.66;10582253;28;19934;-68
2022/07/30 03:55:56;;;;;;;;;;;;;;;19.74;75.78;100665.53;10582476;28;19931;-70
2022/07/30 04:01:01;;;;;;;;;;;;;;;19.68;76.38;100668.41;10582696;28;19931;-68
2022/07/30 04:06:04;;;;;;;;;;;;;;;19.64;76.92;100673.88;10581915;28;20284;-67
2022/07/30 04:11:07;;;;;;;;;;;;;;;19.72;76.78;100674.41;10581611;28;19924;-68
2022/07/30 04:16:14;;;;;;;;;;;;;;;19.75;77.46;100680.41;10581198;28;19942;-67
2022/07/30 04:21:40;;;;;;;;;;;;;;;19.76;77.66;100678.63;10585163;28;20238;-70
2022/07/30 04:26:43;;;;;;;;;;;;;;;19.88;78.42;100672.84;10587178;28;19934;-68
2022/07/30 04:31:48;;;;;;;;;;;;;;;20.00;77.41;100667.88;10586189;28;19934;-68
2022/07/30 04:36:51;;;;;;;;;;;;;;;20.03;77.21;100670.41;10586812;28;20310;-67
2022/07/30 04:41:54;;;;;;;;;;;;;;;20.03;77.23;100662.50;10586354;28;19931;-70
2022/07/30 04:46:58;;;;;;;;;;;;;;;20.08;77.06;100665.78;10586333;28;19924;-68
2022/07/30 04:52:02;;;;;;;;;;;;;;;20.13;77.31;100670.84;10586276;28;19924;-68
2022/07/30 04:57:05;;;;;;;;;;;;;;;20.10;77.75;100676.25;10585980;28;19934;-67
2022/07/30 05:02:10;;;;;;;;;;;;;;;20.23;78.21;100659.00;10585903;28;19924;-69
2022/07/30 05:07:14;;;;;;;;;;;;;;;20.23;77.71;100659.00;10585646;28;19923;-71
2022/07/30 05:12:17;;;;;;;;;;;;;;;20.22;77.97;100659.94;10585543;28;19942;-68
2022/07/30 05:17:21;;;;;;;;;;;;;;;20.25;78.50;100665.06;10585551;28;20008;-67
2022/07/30 05:22:26;;;;;;;;;;;;;;;20.16;79.46;100663.69;10585948;28;19924;-68
2022/07/30 05:27:29;;;;;;;;;;;;;;;20.10;80.49;100658.66;10585188;28;20355;-66
2022/07/30 05:32:33;;;;;;;;;;;;;;;20.09;80.37;100651.66;10584960;28;20255;-69
2022/07/30 05:37:37;;;;;;;;;;;;;;;20.13;80.17;100660.28;10584963;28;19931;-68
2022/07/30 05:42:40;;;;;;;;;;;;;;;20.13;81.78;100655.03;10587799;28;20371;-69
2022/07/30 05:47:44;;;;;;;;;;;;;;;20.15;83.60;100648.78;10593653;28;19923;-71
2022/07/30 05:52:47;;;;;;;;;;;;;;;20.09;85.03;100648.16;10593083;28;20351;-68
2022/07/30 05:57:50;;;;;;;;;;;;;;;20.04;87.45;100647.50;10593132;28;19928;-66
2022/07/30 06:02:55;;;;;;;;;;;;;;;20.06;88.72;100643.91;10239470;27;10000156;-67
2022/07/30 06:07:58;;;;;;;;;;;;;;;20.12;89.15;100640.97;10629262;27;19946;-67
2022/07/30 06:13:01;;;;;;;;;;;;;;;20.12;88.98;100638.34;10628688;27;19931;-65
2022/07/30 06:18:05;;;;;;;;;;;;;;;20.09;89.73;100646.41;10629784;27;19927;-68
2022/07/30 06:23:09;;;;;;;;;;;;;;;20.11;89.76;100649.81;10629095;27;19930;-67
2022/07/30 06:28:12;;;;;;;;;;;;;;;20.17;89.04;100657.47;10628015;27;20352;-69
2022/07/30 06:33:36;;;;;;;;;;;;;;;20.30;89.49;100641.97;10628658;27;20363;-65
2022/07/30 06:38:39;;;;;;;;;;;;;;;20.35;88.60;100637.34;10628114;27;20356;-67
2022/07/30 06:43:42;;;;;;;;;;;;;;;20.38;87.92;100629.31;10627758;27;19989;-67
2022/07/30 06:48:47;;;;;;;;;;;;;;;20.43;87.62;100629.97;10627386;27;20351;-68
2022/07/30 06:53:50;;;;;;;;;;;;;;;20.52;88.22;100627.75;10627340;27;19967;-70
2022/07/30 06:58:53;;;;;;;;;;;;;;;20.51;89.97;100626.03;10627272;27;19949;-66
2022/07/30 07:03:57;;;;;;;;;;;;;;;20.56;88.83;100610.84;10614652;27;20019;-70
2022/07/30 07:09:00;;;;;;;;;;;;;;;20.58;88.85;100614.28;10585379;28;19924;-67
2022/07/30 07:14:03;;;;;;;;;;;;;;;20.77;88.66;100616.03;10583888;28;19927;-66
2022/07/30 07:19:08;;;;;;;;;;;;;;;20.86;86.93;100605.91;10583773;28;19984;-67
2022/07/30 07:24:15;;;;;;;;;;;;;;;20.79;86.68;100601.84;10583706;28;19927;-68
2022/07/30 07:29:18;;;;;;;;;;;;;;;20.80;87.40;100587.72;10583617;28;20356;-67
2022/07/30 07:34:22;;;;;;;;;;;;;;;20.86;86.67;100590.06;10572056;28;20533;-67
2022/07/30 07:39:25;;;;;;;;;;;;;;;21.08;85.89;100589.91;10582829;28;19924;-68
2022/07/30 07:44:28;;;;;;;;;;;;;;;21.24;86.03;100596.13;10583792;28;20336;-69
2022/07/30 07:49:33;;;;;;;;;;;;;;;21.42;85.64;100585.50;10583253;28;19932;-70
2022/07/30 07:54:36;;;;;;;;;;;;;;;21.54;86.60;100586.66;10582165;28;20260;-66
2022/07/30 07:59:40;;;;;;;;;;;;;;;21.68;86.71;100581.50;10582929;28;19924;-66
2022/07/30 08:04:45;;;;;;;;;;;;;;;21.90;86.15;100571.53;10600640;27;19924;-67
2022/07/30 08:09:48;;;;;;;;;;;;;;;22.08;84.52;100572.34;10623858;27;19924;-68
2022/07/30 08:14:51;;;;;;;;;;;;;;;22.23;83.59;100566.22;10623818;27;19934;-68
2022/07/30 08:19:59;;;;;;;;;;;;;;;22.37;83.22;100561.03;10624568;27;20427;-70
2022/07/30 08:25:02;;;;;;;;;;;;;;;22.46;82.26;100560.53;10623397;27;19927;-67
2022/07/30 08:30:06;;;;;;;;;;;;;;;22.59;82.31;100545.75;10623807;27;20060;-68
2022/07/30 08:35:11;;;;;;;;;;;;;;;22.78;82.18;100543.72;10624392;27;19991;-67
2022/07/30 08:40:14;;;;;;;;;;;;;;;22.89;81.01;100539.53;10622911;27;19923;-69
2022/07/30 08:45:17;;;;;;;;;;;;;;;23.00;81.21;100535.41;10622429;27;19927;-66
2022/07/30 08:50:24;;;;;;;;;;;;;;;23.14;80.51;100538.97;10622362;27;19931;-69
2022/07/30 08:55:28;;;;;;;;;;;;;;;23.19;80.70;100525.44;10623118;27;19927;-67
2022/07/30 09:00:31;;;;;;;;;;;;;;;23.23;80.02;100532.28;10606189;27;20241;-70
2022/07/30 09:05:35;;;;;;;;;;;;;;;23.28;79.95;100524.94;10605531;27;19927;-68
2022/07/30 09:10:38;;;;;;;;;;;;;;;23.40;80.63;100535.66;10623101;27;19927;-67
2022/07/30 09:15:54;;;;;;;;;;;;;;;23.47;80.45;100526.38;10592418;27;20362;-67
2022/07/30 09:21:00;;;;;;;;;;;;;;;23.57;80.05;100521.41;10578862;28;19927;-68
2022/07/30 09:26:03;;;;;;;;;;;;;;;23.79;77.96;100517.34;10579627;28;19923;-67
2022/07/30 09:31:08;;;;;;;;;;;;;;;24.06;76.18;100524.56;10578482;28;21071;-69
2022/07/30 09:36:14;;;;;;;;;;;;;;;24.18;74.50;100519.31;10578729;28;19928;-69
2022/07/30 09:41:20;;;;;;;;;;;;;;;24.19;72.97;100526.34;10578643;28;19980;-68
2022/07/30 09:46:43;;;;;;;;;;;;;;;23.99;73.76;100519.63;10579725;28;19928;-63
2022/07/30 09:51:48;;;;;;;;;;;;;;;23.84;74.41;100517.03;10578682;28;20286;-66
2022/07/30 09:57:08;;;;;;;;;;;;;;;23.75;73.79;100507.84;10579017;28;19923;-70
2022/07/30 10:02:29;;;;;;;;;;;;;;;23.59;73.39;100517.69;10579530;28;19939;-69
2022/07/30 10:07:35;;;;;;;;;;;;;;;23.45;74.30;100517.66;10578508;28;19928;-68
2022/07/30 10:12:45;;;;;;;;;;;;;;;23.32;74.37;100529.97;10578172;28;20336;-69
2022/07/30 10:17:50;;;;;;;;;;;;;;;23.21;74.49;100527.06;10578714;28;19927;-68
2022/07/30 10:22:55;;;;;;;;;;;;;;;23.17;76.19;100530.84;10578142;28;20663;-69
2022/07/30 10:27:59;;;;;;;;;;;;;;;23.12;77.28;100535.56;10577693;28;19946;-70
2022/07/30 10:33:07;;;;;;;;;;;;;;;23.04;77.90;100543.09;10585319;28;19924;-70
2022/07/30 10:38:35;;;;;;;;;;;;;;;22.96;81.26;100539.19;10587252;28;19928;-68
2022/07/30 10:43:51;;;;;;;;;;;;;;;22.97;81.76;100535.59;10584535;28;19932;-68
2022/07/30 10:48:56;;;;;;;;;;;;;;;22.87;81.67;100541.41;10585038;28;20551;-68
2022/07/30 10:54:00;;;;;;;;;;;;;;;22.82;84.53;100542.63;10585436;28;19928;-68
2022/07/30 10:59:05;;;;;;;;;;;;;;;22.76;85.35;100541.16;10585215;28;19927;-70
2022/07/30 11:04:17;;;;;;;;;;;;;;;22.72;86.67;100547.59;10598747;27;19928;-67
2022/07/30 11:09:36;;;;;;;;;;;;;;;22.64;89.35;100552.44;10627192;27;19923;-68
2022/07/30 11:14:54;;;;;;;;;;;;;;;22.50;91.00;100540.94;10626464;27;19927;-70
2022/07/30 11:20:10;;;;;;;;;;;;;;;22.38;94.27;100533.69;10592384;27;19924;-68
2022/07/30 11:30:43;;;;;;;;;;;;;;;22.18;99.23;100526.81;10531758;28;19923;-66
2022/07/30 11:36:07;;;;;;;;;;;;;;;22.15;100.00;100528.78;10531040;28;20292;-69
2022/07/30 11:41:13;;;;;;;;;;;;;;;22.01;100.00;100534.81;10531368;28;19934;-66
2022/07/30 11:46:21;;;;;;;;;;;;;;;21.83;100.00;100535.81;10531320;28;19929;-65
2022/07/30 11:51:39;;;;;;;;;;;;;;;21.72;100.00;100540.78;10530739;28;19938;-70
2022/07/30 11:56:49;;;;;;;;;;;;;;;21.54;100.00;100532.03;10530410;28;19935;-69
2022/07/30 12:01:55;;;;;;;;;;;;;;;21.58;100.00;100523.03;10531407;28;20363;-67
2022/07/30 12:06:58;;;;;;;;;;;;;;;21.50;100.00;100524.38;10530395;28;19928;-67
2022/07/30 12:12:20;;;;;;;;;;;;;;;21.42;100.00;100513.31;10530014;28;19924;-66
2022/07/30 12:17:38;;;;;;;;;;;;;;;21.41;100.00;100508.97;10530702;28;19935;-67
2022/07/30 12:22:43;;;;;;;;;;;;;;;21.38;100.00;100509.97;10529407;28;20227;-69
2022/07/30 12:27:47;;;;;;;;;;;;;;;21.31;100.00;100490.09;10547107;28;19924;-67
2022/07/30 12:32:54;;;;;;;;;;;;;;;21.30;100.00;100491.06;10611917;28;20034;-68
2022/07/30 12:38:05;;;;;;;;;;;;;;;21.33;100.00;100485.59;10609371;28;19931;-68
2022/07/30 12:43:10;;;;;;;;;;;;;;;21.29;100.00;100480.56;10584739;28;20083;-68
2022/07/30 12:48:16;;;;;;;;;;;;;;;21.25;100.00;100476.38;10584677;28;19999;-67
2022/07/30 12:53:28;;;;;;;;;;;;;;;21.27;100.00;100463.94;10585687;28;19923;-69
2022/07/30 12:58:36;;;;;;;;;;;;;;;21.29;100.00;100477.94;10584330;28;19938;-65
2022/07/30 13:03:39;;;;;;;;;;;;;;;21.29;100.00;100470.00;10574157;28;20352;-65
2022/07/30 13:08:51;;;;;;;;;;;;;;;21.28;100.00;100492.06;10542173;28;19935;-66
2022/07/30 13:13:54;;;;;;;;;;;;;;;21.26;100.00;100481.56;10541681;28;19928;-69
2022/07/30 13:18:57;;;;;;;;;;;;;;;21.34;100.00;100470.63;10541363;28;19934;-66
2022/07/30 13:24:02;;;;;;;;;;;;;;;21.31;100.00;100463.69;10541005;28;19934;-68
2022/07/30 13:29:05;;;;;;;;;;;;;;;21.28;100.00;100463.00;10541652;28;19928;-66
2022/07/30 13:34:08;;;;;;;;;;;;;;;21.23;100.00;100471.19;10574326;28;19934;-65
2022/07/30 13:39:12;;;;;;;;;;;;;;;21.17;100.00;100468.00;10582639;28;19927;-70
2022/07/30 13:44:16;;;;;;;;;;;;;;;21.13;100.00;100469.94;10583299;28;19938;-69
2022/07/30 13:49:19;;;;;;;;;;;;;;;21.04;100.00;100449.28;10581359;28;19924;-66
2022/07/30 13:54:24;;;;;;;;;;;;;;;21.06;100.00;100443.94;10581866;28;19927;-67
2022/07/30 13:59:27;;;;;;;;;;;;;;;21.07;100.00;100440.38;10581807;28;19934;-70
2022/07/30 14:04:30;;;;;;;;;;;;;;;21.02;100.00;100431.84;10564975;28;20361;-68
2022/07/30 14:09:35;;;;;;;;;;;;;;;20.98;100.00;100415.31;10539287;28;19928;-68
2022/07/30 14:14:50;;;;;;;;;;;;;;;20.95;100.00;100409.31;10539021;28;19932;-70
2022/07/30 14:19:53;;;;;;;;;;;;;;;20.95;100.00;100391.66;10540231;28;19924;-70
2022/07/30 14:24:58;;;;;;;;;;;;;;;20.89;100.00;100394.63;10538712;28;19928;-67
2022/07/30 14:30:03;;;;;;;;;;;;;;;20.88;100.00;100377.06;10538222;28;19946;-67
2022/07/30 14:35:07;;;;;;;;;;;;;;;20.87;100.00;100371.88;10564893;28;19924;-71
2022/07/30 14:40:12;;;;;;;;;;;;;;;20.84;100.00;100359.72;10580824;28;20290;-71
2022/07/30 14:45:15;;;;;;;;;;;;;;;20.90;100.00;100359.38;10580030;28;19934;-67
2022/07/30 14:50:18;;;;;;;;;;;;;;;20.91;100.00;100365.53;10579828;28;19924;-66
2022/07/30 14:55:23;;;;;;;;;;;;;;;20.86;100.00;100357.00;10580813;28;20547;-70
2022/07/30 15:00:26;;;;;;;;;;;;;;;20.85;100.00;100356.13;10579656;28;19944;-67
2022/07/30 15:05:34;;;;;;;;;;;;;;;20.84;100.00;100353.59;10553668;28;19938;-68
2022/07/30 15:10:40;;;;;;;;;;;;;;;20.83;100.00;100346.63;10537874;28;20348;-66
2022/07/30 15:15:45;;;;;;;;;;;;;;;20.83;100.00;100342.16;10540947;28;19935;-67
2022/07/30 15:20:49;;;;;;;;;;;;;;;20.85;100.00;100336.81;10542688;28;19924;-69
2022/07/30 15:25:53;;;;;;;;;;;;;;;20.94;100.00;100328.41;10542725;28;19936;-70
2022/07/30 15:30:56;;;;;;;;;;;;;;;20.98;100.00;100316.78;10542908;28;19924;-66
2022/07/30 15:35:59;;;;;;;;;;;;;;;20.95;100.00;100322.22;10542690;28;20281;-68
2022/07/30 15:41:04;;;;;;;;;;;;;;;20.93;100.00;100313.53;10542560;28;19931;-66
2022/07/30 15:46:10;;;;;;;;;;;;;;;20.92;100.00;100294.19;10542489;28;19935;-68
2022/07/30 15:51:13;;;;;;;;;;;;;;;20.92;100.00;100293.34;10542260;28;20253;-66
2022/07/30 15:56:17;;;;;;;;;;;;;;;20.89;100.00;100285.59;10542240;28;20341;-68
2022/07/30 16:01:20;;;;;;;;;;;;;;;20.84;100.00;100280.56;10541682;28;20420;-66
2022/07/30 16:06:23;;;;;;;;;;;;;;;20.79;100.00;100279.09;10536223;28;19938;-74
2022/07/30 16:11:27;;;;;;;;;;;;;;;20.76;100.00;100266.06;10535738;28;19930;-69
2022/07/30 16:16:34;;;;;;;;;;;;;;;20.75;100.00;100270.50;10542765;28;20014;-70
2022/07/30 16:21:37;;;;;;;;;;;;;;;20.73;100.00;100266.22;10544608;28;19934;-70
2022/07/30 16:26:41;;;;;;;;;;;;;;;20.72;100.00;100259.25;10224710;27;10000244;-69
2022/07/30 16:37:07;;;;;;;;;;;;;;;20.64;100.00;100262.28;10678315;27;1922082;-72
2022/07/30 16:42:10;;;;;;;;;;;;;;;20.62;100.00;100254.44;10745059;27;19979;-69
2022/07/30 16:47:13;;;;;;;;;;;;;;;20.59;100.00;100254.63;10744895;27;19926;-71
2022/07/30 16:52:17;;;;;;;;;;;;;;;20.58;100.00;100247.66;10744585;27;19927;-67
2022/07/30 16:57:20;;;;;;;;;;;;;;;20.52;100.00;100257.66;10745641;27;20255;-71
2022/07/30 17:02:23;;;;;;;;;;;;;;;20.49;100.00;100256.03;10744694;27;19923;-70
2022/07/30 17:07:28;;;;;;;;;;;;;;;20.49;100.00;100260.44;10744084;27;20355;-69
2022/07/30 17:12:31;;;;;;;;;;;;;;;20.51;100.00;100254.19;10744656;27;19937;-65
2022/07/30 17:17:34;;;;;;;;;;;;;;;20.46;100.00;100268.53;10744267;27;19926;-72
2022/07/30 17:22:39;;;;;;;;;;;;;;;20.41;100.00;100274.06;10743592;27;19923;-71
2022/07/30 17:27:44;;;;;;;;;;;;;;;20.36;100.00;100277.84;10743186;27;19929;-69
2022/07/30 17:32:47;;;;;;;;;;;;;;;20.32;100.00;100274.53;10742691;27;19974;-70
2022/07/30 17:37:52;;;;;;;;;;;;;;;20.19;100.00;100265.50;10743813;27;19953;-68
2022/07/30 17:43:01;;;;;;;;;;;;;;;20.10;100.00;100270.38;10743281;27;19926;-71
2022/07/30 17:48:06;;;;;;;;;;;;;;;19.91;100.00;100267.81;10715943;27;20317;-71
2022/07/30 17:53:10;;;;;;;;;;;;;;;19.73;100.00;100255.53;10714029;27;20022;-69
2022/07/30 17:58:13;;;;;;;;;;;;;;;19.80;100.00;100250.81;10713593;27;20233;-73
2022/07/30 18:03:16;;;;;;;;;;;;;;;19.83;100.00;100243.63;10712907;27;19930;-69
2022/07/30 18:08:20;;;;;;;;;;;;;;;19.79;100.00;100234.19;10713012;27;19930;-73
2022/07/30 18:13:24;;;;;;;;;;;;;;;19.70;100.00;100232.00;10713357;27;20347;-71
2022/07/30 18:18:29;;;;;;;;;;;;;;;19.71;100.00;100217.06;10712558;27;19926;-68
2022/07/30 18:23:34;;;;;;;;;;;;;;;19.69;100.00;100219.72;10712198;27;20063;-69
2022/07/30 18:28:37;;;;;;;;;;;;;;;19.61;100.00;100214.00;10706750;27;19931;-68
2022/07/30 18:33:40;;;;;;;;;;;;;;;19.63;100.00;100220.06;10650982;27;20372;-71
2022/07/30 18:38:48;;;;;;;;;;;;;;;19.64;100.00;100218.28;10668287;27;20018;-69
2022/07/30 18:43:55;;;;;;;;;;;;;;;19.60;100.00;100216.72;10668235;27;20375;-69
2022/07/30 18:48:59;;;;;;;;;;;;;;;19.54;100.00;100221.34;10668796;27;19934;-70
2022/07/30 18:54:23;;;;;;;;;;;;;;;19.46;100.00;100209.50;10668086;27;19931;-69
2022/07/30 18:59:26;;;;;;;;;;;;;;;19.50;100.00;100203.13;10666349;27;20002;-71
2022/07/30 19:04:30;;;;;;;;;;;;;;;19.51;100.00;100203.09;10668134;27;19923;-72
2022/07/30 19:09:34;;;;;;;;;;;;;;;19.50;100.00;100217.16;10667669;27;19927;-70
2022/07/30 19:14:37;;;;;;;;;;;;;;;19.52;100.00;100215.31;10666905;27;19927;-72
2022/07/30 19:19:40;;;;;;;;;;;;;;;19.50;100.00;100208.41;10666979;27;19937;-72
2022/07/30 19:24:47;;;;;;;;;;;;;;;19.49;100.00;100206.72;10674770;27;19931;-72
2022/07/30 19:29:50;;;;;;;;;;;;;;;19.35;100.00;100207.38;10666415;27;19923;-74
2022/07/30 19:34:54;;;;;;;;;;;;;;;19.37;100.00;100197.63;10665711;27;19927;-71
2022/07/30 19:39:58;;;;;;;;;;;;;;;19.37;100.00;100189.75;10666566;27;20372;-71
2022/07/30 19:45:10;;;;;;;;;;;;;;;19.37;100.00;100186.25;10665778;27;20339;-73
2022/07/30 19:50:14;;;;;;;;;;;;;;;19.28;100.00;100173.50;10665579;27;19926;-74
2022/07/30 19:55:19;;;;;;;;;;;;;;;19.12;100.00;100162.03;10666655;27;19929;-75
2022/07/30 20:00:37;;;;;;;;;;;;;;;19.09;100.00;100152.47;10665167;27;19937;-70
2022/07/30 20:05:40;;;;;;;;;;;;;;;19.01;100.00;100145.88;10664810;27;20383;-71
2022/07/30 20:11:04;;;;;;;;;;;;;;;19.04;100.00;100135.22;10664742;27;20017;-68
2022/07/30 20:16:10;;;;;;;;;;;;;;;19.07;100.00;100146.44;10665388;27;19931;-67
2022/07/30 20:21:14;;;;;;;;;;;;;;;19.09;100.00;100138.47;10668543;27;20305;-66
2022/07/30 20:26:19;;;;;;;;;;;;;;;19.13;100.00;100134.78;10670417;27;20021;-68
2022/07/30 20:31:22;;;;;;;;;;;;;;;19.18;100.00;100136.25;10670602;27;20435;-66
2022/07/30 20:36:27;;;;;;;;;;;;;;;19.17;100.00;100128.44;10670375;27;19953;-65
2022/07/30 20:41:32;;;;;;;;;;;;;;;19.14;100.00;100133.81;10670268;27;19934;-65
2022/07/30 20:46:35;;;;;;;;;;;;;;;19.14;100.00;100146.97;10670030;27;19933;-69
2022/07/30 20:51:40;;;;;;;;;;;;;;;19.07;100.00;100159.59;10670150;27;20329;-65
2022/07/30 20:56:44;;;;;;;;;;;;;;;18.99;100.00;100185.41;10670053;27;19942;-66
2022/07/30 21:01:48;;;;;;;;;;;;;;;19.03;100.00;100210.66;10697060;27;19927;-67
2022/07/30 21:06:52;;;;;;;;;;;;;;;19.00;100.00;100162.59;10712805;27;19922;-67
2022/07/30 21:11:57;;;;;;;;;;;;;;;18.90;100.00;100180.59;10712812;27;19923;-69
2022/07/30 21:17:01;;;;;;;;;;;;;;;18.76;100.00;100187.44;10712907;27;19923;-66
2022/07/30 21:22:04;;;;;;;;;;;;;;;18.59;100.00;100174.16;10717558;27;20262;-65
2022/07/30 21:27:10;;;;;;;;;;;;;;;18.53;100.00;100172.69;10720444;27;19926;-67
2022/07/30 21:32:15;;;;;;;;;;;;;;;18.53;100.00;100175.31;10720547;27;19975;-66
2022/07/30 21:37:20;;;;;;;;;;;;;;;18.53;100.00;100177.09;10720195;27;20066;-66
2022/07/30 21:42:24;;;;;;;;;;;;;;;18.61;100.00;100170.56;10720396;27;19933;-66
2022/07/30 21:47:32;;;;;;;;;;;;;;;18.58;100.00;100160.19;10719813;27;19933;-68
2022/07/30 21:52:35;;;;;;;;;;;;;;;18.54;100.00;100155.13;10719637;27;20388;-69
2022/07/30 21:57:39;;;;;;;;;;;;;;;18.44;100.00;100133.69;10719659;27;19927;-65
2022/07/30 22:02:43;;;;;;;;;;;;;;;18.45;100.00;100138.00;10719376;27;19923;-70
2022/07/30 22:07:55;;;;;;;;;;;;;;;18.45;100.00;100135.38;10719159;27;19970;-68
2022/07/30 22:13:00;;;;;;;;;;;;;;;18.41;100.00;100120.69;10718906;27;19923;-66
2022/07/30 22:18:03;;;;;;;;;;;;;;;18.36;100.00;100118.22;10718660;27;19923;-68
2022/07/30 22:23:06;;;;;;;;;;;;;;;18.41;100.00;100105.75;10715171;27;19927;-66
2022/07/30 22:28:11;;;;;;;;;;;;;;;18.47;100.00;100094.09;10322063;27;10000061;-69
2022/07/30 22:33:15;;;;;;;;;;;;;;;18.49;100.00;100087.00;10669008;27;19927;-66
2022/07/30 22:38:19;;;;;;;;;;;;;;;18.56;100.00;100079.69;10668658;27;19934;-65
2022/07/30 22:43:25;;;;;;;;;;;;;;;18.45;100.00;100074.09;10668751;27;19927;-64
2022/07/30 22:48:42;;;;;;;;;;;;;;;18.45;100.00;100067.03;10668031;27;19923;-67
2022/07/30 22:53:46;;;;;;;;;;;;;;;18.46;100.00;100063.50;10667681;27;19934;-62
2022/07/30 22:59:10;;;;;;;;;;;;;;;18.41;100.00;100057.63;10669404;27;19927;-62
2022/07/30 23:04:17;;;;;;;;;;;;;;;18.41;100.00;100057.63;10667698;27;19983;-68
2022/07/30 23:09:19;;;;;;;;;;;;;;;18.46;100.00;100058.25;10667221;27;19923;-68
2022/07/30 23:14:25;;;;;;;;;;;;;;;18.43;100.00;100045.22;10667765;27;20338;-66
2022/07/30 23:19:28;;;;;;;;;;;;;;;18.47;100.00;100045.94;10666762;27;20268;-68
2022/07/30 23:24:31;;;;;;;;;;;;;;;18.46;100.00;100036.38;10648603;27;20348;-66
2022/07/30 23:29:35;;;;;;;;;;;;;;;18.47;100.00;100033.66;10666501;27;19927;-70
2022/07/30 23:34:38;;;;;;;;;;;;;;;18.52;100.00;100033.47;10666535;27;19931;-66
2022/07/30 23:39:42;;;;;;;;;;;;;;;18.50;100.00;100022.16;10666054;27;19931;-65
2022/07/30 23:44:46;;;;;;;;;;;;;;;18.54;100.00;100018.44;10665558;27;19927;-70
2022/07/30 23:49:49;;;;;;;;;;;;;;;18.50;100.00;100009.03;10666824;27;19931;-68
2022/07/30 23:54:52;;;;;;;;;;;;;;;18.43;100.00;100005.81;10665324;27;19923;-66
2022/07/30 23:59:56;;;;;;;;;;;;;;;18.46;100.00;100003.06;10665390;27;19927;-66
